Time;durP1;ratioP1;P1;durP2;ratioP2;P2;SDS_P1;SDS_P2;PMS_P1;PMS_P2;Temp;Humidity;BMP_temperature;BMP_pressure;BME280_temperature;BME280_humidity;BME280_pressure;Samples;Min_cycle;Max_cycle;Signal;HPM_P1;HPM_P2
2022/05/27 00:02:20;;;;;;;3.10;2.00;;;;;;;17.45;46.56;100771.90;117317;1183;22699;-51
2022/05/27 00:04:48;;;;;;;3.70;2.00;;;;;;;17.44;46.57;100762.86;117367;1185;21848;-56
2022/05/27 00:07:15;;;;;;;3.80;1.70;;;;;;;17.44;46.54;100766.61;117155;1188;22921;-52
2022/05/27 00:09:42;;;;;;;3.50;1.90;;;;;;;17.44;46.53;100763.96;117309;1186;23542;-51
2022/05/27 00:12:09;;;;;;;3.20;1.90;;;;;;;17.43;46.57;100765.44;116961;1187;23609;-51
2022/05/27 00:14:37;;;;;;;4.00;2.00;;;;;;;17.43;46.61;100761.52;117351;1188;21912;-56
2022/05/27 00:17:04;;;;;;;2.20;1.70;;;;;;;17.43;46.63;100758.14;117134;1185;23255;-51
2022/05/27 00:19:31;;;;;;;3.70;2.50;;;;;;;17.43;46.55;100756.89;117182;1188;22159;-51
2022/05/27 00:21:58;;;;;;;2.90;1.90;;;;;;;17.44;46.65;100758.63;117427;1185;21856;-55
2022/05/27 00:24:25;;;;;;;3.20;1.80;;;;;;;17.44;46.57;100755.97;117148;1188;24137;-51
2022/05/27 00:26:52;;;;;;;2.80;1.80;;;;;;;17.44;46.63;100754.73;117358;1181;22992;-56
2022/05/27 00:29:19;;;;;;;3.40;1.90;;;;;;;17.44;46.68;100749.22;117335;1183;22919;-56
2022/05/27 00:31:46;;;;;;;7.10;2.20;;;;;;;17.47;46.86;100747.18;117292;1186;21852;-56
2022/05/27 00:34:14;;;;;;;2.90;2.30;;;;;;;17.50;46.70;100742.98;117333;1185;23702;-51
2022/05/27 00:36:41;;;;;;;6.00;2.50;;;;;;;17.52;46.75;100742.01;117233;1186;23544;-56
2022/05/27 00:39:09;;;;;;;2.70;2.00;;;;;;;17.54;46.73;100741.77;117259;1187;22915;-51
2022/05/27 00:41:36;;;;;;;4.40;2.10;;;;;;;17.57;46.88;100739.00;117088;1186;21866;-51
2022/05/27 00:44:03;;;;;;;3.40;2.00;;;;;;;17.61;46.91;100737.27;117194;1188;22921;-56
2022/05/27 00:46:31;;;;;;;3.00;2.00;;;;;;;17.65;46.82;100737.30;117242;1186;23439;-50
2022/05/27 00:49:14;;;;;;;4.50;2.40;;;;;;;17.68;46.82;100733.61;117222;1188;22935;-51
2022/05/27 00:51:50;;;;;;;3.60;2.20;;;;;;;17.74;46.85;100731.67;117356;1185;21970;-50
2022/05/27 00:54:22;;;;;;;4.80;2.80;;;;;;;17.77;47.01;100726.05;117146;1186;22914;-55
2022/05/27 00:57:09;;;;;;;4.00;2.40;;;;;;;17.81;46.82;100716.14;117169;1188;23607;-56
2022/05/27 00:59:50;;;;;;;5.10;2.60;;;;;;;17.86;46.93;100711.54;117107;1185;23478;-51
2022/05/27 01:02:17;;;;;;;;;;;;;;;17.89;46.78;100711.23;117179;1187;23541;-51
2022/05/27 01:04:45;;;;;;;4.10;2.60;;;;;;;17.91;46.90;100708.31;117308;1185;24233;-51
2022/05/27 01:07:12;;;;;;;7.50;2.70;;;;;;;17.93;46.90;100709.83;117144;1188;23541;-56
2022/05/27 01:09:41;;;;;;;3.70;2.40;;;;;;;17.95;46.92;100711.53;117142;1187;23544;-52
2022/05/27 01:12:58;;;;;;;4.20;2.90;;;;;;;17.99;46.90;100710.00;117166;1188;23611;-56
2022/05/27 01:15:35;;;;;;;3.20;2.50;;;;;;;18.04;46.83;100715.88;116869;1189;24692;-51
2022/05/27 01:20:18;;;;;;;4.40;3.10;;;;;;;18.04;46.79;100724.73;117082;1185;23573;-52
2022/05/27 01:21:14;;;;;;;;;;;;;;;17.96;46.79;100729.60;117110;1188;23535;-56
2022/05/27 01:24:05;;;;;;;3.50;2.80;;;;;;;17.85;46.68;100727.52;117172;1185;24166;-51
2022/05/27 01:27:10;;;;;;;5.00;3.10;;;;;;;17.70;46.60;100728.44;117161;1187;23545;-51
2022/05/27 01:29:58;;;;;;;5.00;3.10;;;;;;;17.51;46.60;100728.75;117261;1185;24141;-51
2022/05/27 01:32:28;;;;;;;5.00;2.90;;;;;;;17.36;46.69;100725.20;117070;1188;21860;-51
2022/05/27 01:35:02;;;;;;;4.30;3.40;;;;;;;17.29;46.71;100724.04;117103;1188;21853;-52
2022/05/27 01:37:35;;;;;;;4.20;3.20;;;;;;;17.24;46.72;100721.35;117212;1188;23566;-51
2022/05/27 01:40:08;;;;;;;6.60;3.70;;;;;;;17.21;46.94;100718.45;117395;1186;24884;-51
2022/05/27 01:42:50;;;;;;;4.80;3.40;;;;;;;17.20;46.97;100722.40;117452;1186;22951;-51
2022/05/27 01:45:36;;;;;;;3.80;3.20;;;;;;;17.17;46.86;100721.59;117255;1186;21888;-55
2022/05/27 01:48:11;;;;;;;5.20;3.70;;;;;;;17.15;46.91;100722.40;117376;1184;21882;-56
2022/05/27 01:50:46;;;;;;;4.60;3.20;;;;;;;17.13;46.99;100725.28;117445;1183;23950;-52
2022/05/27 01:53:39;;;;;;;3.60;2.90;;;;;;;17.09;47.00;100727.73;117365;1184;23675;-55
2022/05/27 01:56:17;;;;;;;5.50;3.30;;;;;;;17.04;47.03;100724.17;117311;1184;24144;-50
2022/05/27 01:58:50;;;;;;;6.60;3.50;;;;;;;16.99;46.98;100724.85;117372;1186;23890;-50
2022/05/27 02:01:21;;;;;;;6.10;3.90;;;;;;;16.96;47.09;100723.00;117271;1183;23850;-55
2022/05/27 02:03:51;;;;;;;6.40;3.30;;;;;;;16.93;47.09;100721.84;117269;1181;22956;-51
2022/05/27 02:06:24;;;;;;;5.20;3.40;;;;;;;16.90;47.06;100720.69;117370;1185;21878;-56
2022/05/27 02:09:11;;;;;;;5.80;3.50;;;;;;;16.87;47.10;100721.32;117445;1186;21913;-55
2022/05/27 02:11:39;;;;;;;5.40;3.40;;;;;;;16.86;47.15;100721.19;117335;1185;22805;-51
2022/05/27 02:14:28;;;;;;;5.20;3.00;;;;;;;16.84;47.14;100720.19;117447;1189;21868;-55
2022/05/27 02:17:01;;;;;;;4.90;3.30;;;;;;;16.85;47.09;100721.23;117351;1183;23541;-55
2022/05/27 02:19:33;;;;;;;6.60;3.20;;;;;;;16.85;47.22;100722.97;117346;1184;21852;-54
2022/05/27 02:22:07;;;;;;;4.50;3.60;;;;;;;16.87;47.17;100721.48;117357;1182;24149;-51
2022/05/27 02:24:45;;;;;;;4.20;2.70;;;;;;;16.87;47.18;100722.39;117389;1184;23637;-56
2022/05/27 02:27:13;;;;;;;5.30;3.10;;;;;;;16.87;47.24;100723.98;117368;1184;22979;-55
2022/05/27 02:29:42;;;;;;;5.80;3.40;;;;;;;16.88;47.17;100726.27;117376;1185;23573;-54
2022/05/27 02:32:13;;;;;;;5.00;3.60;;;;;;;16.86;47.20;100727.04;117359;1186;21845;-51
2022/05/27 02:37:37;;;;;;;5.10;3.90;;;;;;;16.81;47.23;100732.16;117282;1182;23548;-50
2022/05/27 02:40:10;;;;;;;5.60;3.30;;;;;;;16.78;47.29;100737.55;117067;1188;22617;-55
2022/05/27 02:42:41;;;;;;;5.40;3.40;;;;;;;16.76;47.32;100738.00;117110;1187;23387;-55
2022/05/27 02:45:46;;;;;;;4.40;3.40;;;;;;;16.74;47.27;100741.42;117298;1185;23570;-53
2022/05/27 02:48:41;;;;;;;6.50;3.30;;;;;;;16.72;47.37;100741.48;117277;1186;22906;-52
2022/05/27 02:51:21;;;;;;;5.80;3.30;;;;;;;16.68;47.33;100744.27;117309;1186;22599;-55
2022/05/27 02:54:03;;;;;;;4.20;3.30;;;;;;;16.64;47.39;100748.80;117152;1182;23468;-55
2022/05/27 02:56:46;;;;;;;4.40;3.50;;;;;;;16.59;47.42;100747.55;117223;1186;21848;-55
2022/05/27 02:59:14;;;;;;;5.70;3.70;;;;;;;16.56;47.44;100746.24;117256;1185;24688;-50
2022/05/27 03:01:41;;;;;;;6.90;3.70;;;;;;;16.54;47.41;100747.55;117114;1185;23576;-55
2022/05/27 03:04:09;;;;;;;6.20;3.90;;;;;;;16.52;47.53;100746.36;117098;1187;22928;-55
2022/05/27 03:06:36;;;;;;;4.60;3.50;;;;;;;16.55;47.49;100748.23;117051;1187;23531;-56
2022/05/27 03:09:25;;;;;;;4.80;3.50;;;;;;;16.56;47.58;100747.14;117081;1186;23636;-51
2022/05/27 03:12:10;;;;;;;6.80;3.50;;;;;;;16.59;47.60;100742.77;117094;1185;22918;-55
2022/05/27 03:14:59;;;;;;;6.50;3.60;;;;;;;16.62;47.63;100743.36;117286;1186;22572;-51
2022/05/27 03:17:52;;;;;;;5.60;3.10;;;;;;;16.68;47.70;100744.63;117329;1185;23462;-50
2022/05/27 03:20:41;;;;;;;5.60;3.20;;;;;;;16.75;47.71;100740.70;117330;1186;24139;-55
2022/05/27 03:23:08;;;;;;;3.90;3.00;;;;;;;16.82;47.75;100738.84;117240;1186;21853;-53
2022/05/27 03:25:45;;;;;;;5.20;3.20;;;;;;;16.89;47.74;100740.21;117260;1186;23101;-54
2022/05/27 03:28:34;;;;;;;4.10;3.30;;;;;;;16.96;47.77;100742.14;117329;1185;22829;-54
2022/05/27 03:31:32;;;;;;;4.30;3.00;;;;;;;17.04;47.91;100743.30;117352;1186;23563;-53
2022/05/27 03:34:06;;;;;;;8.90;3.30;;;;;;;17.11;47.87;100745.58;117282;1186;22900;-54
2022/05/27 03:36:42;;;;;;;7.80;3.40;;;;;;;17.17;47.88;100745.90;117366;1185;24152;-55
2022/05/27 03:39:18;;;;;;;4.70;2.80;;;;;;;17.23;47.81;100744.60;117374;1184;22977;-55
2022/05/27 03:41:52;;;;;;;5.10;3.30;;;;;;;17.30;47.98;100750.95;117292;1185;22708;-55
2022/05/27 03:44:20;;;;;;;5.60;3.80;;;;;;;17.38;48.03;100751.92;117388;1186;24184;-53
2022/05/27 03:46:49;;;;;;;5.40;3.70;;;;;;;17.46;48.04;100746.67;117477;1185;23567;-52
2022/05/27 03:49:16;;;;;;;5.40;3.50;;;;;;;17.53;48.12;100746.09;117332;1185;23438;-52
2022/05/27 03:52:22;;;;;;;9.90;3.40;;;;;;;17.62;48.05;100750.92;117275;1185;22701;-55
2022/05/27 03:54:49;;;;;;;5.00;3.70;;;;;;;17.72;48.10;100745.92;117315;1185;22642;-52
2022/05/27 03:57:17;;;;;;;3.40;2.80;;;;;;;17.80;48.14;100750.06;117368;1180;22905;-52
2022/05/27 03:59:43;;;;;;;8.70;3.90;;;;;;;17.89;48.10;100745.67;117236;1186;23560;-53
2022/05/27 04:02:10;;;;;;;4.10;3.20;;;;;;;18.00;48.15;100748.85;117060;1184;22919;-52
2022/05/27 04:04:37;;;;;;;5.60;3.20;;;;;;;18.11;48.30;100746.11;117290;1185;22990;-55
2022/05/27 04:07:04;;;;;;;4.40;3.40;;;;;;;18.23;48.22;100746.36;117113;1187;21865;-52
2022/05/27 04:09:33;;;;;;;4.30;3.20;;;;;;;18.34;48.29;100746.34;117266;1186;22617;-54
2022/05/27 04:12:00;;;;;;;4.70;3.50;;;;;;;18.46;48.37;100746.75;117370;1186;21865;-53
2022/05/27 04:14:27;;;;;;;5.70;3.50;;;;;;;18.59;48.45;100747.11;117325;1185;24141;-56
2022/05/27 04:17:27;;;;;;;4.40;3.20;;;;;;;18.73;48.44;100747.29;117291;1186;23545;-55
2022/05/27 04:19:41;;;;;;;4.40;2.80;;;;;;;18.87;48.44;100744.75;117315;1182;25142;-55
2022/05/27 04:22:08;;;;;;;5.30;3.20;;;;;;;19.00;48.41;100745.85;117384;1182;22616;-53
2022/05/27 04:24:35;;;;;;;4.60;3.10;;;;;;;19.13;48.40;100745.14;117203;1182;24186;-55
2022/05/27 04:27:09;;;;;;;4.30;3.20;;;;;;;19.26;48.49;100741.56;117206;1185;23648;-55
2022/05/27 04:29:44;;;;;;;6.80;3.00;;;;;;;19.41;48.51;100742.89;117353;1186;22977;-52
2022/05/27 04:32:12;;;;;;;4.40;2.70;;;;;;;19.56;48.56;100743.63;117119;1186;23643;-55
2022/05/27 04:34:40;;;;;;;2.70;2.20;;;;;;;19.72;48.63;100750.43;117317;1185;21854;-53
2022/05/27 04:37:08;;;;;;;5.00;3.00;;;;;;;19.89;48.56;100747.54;117169;1188;22111;-52
2022/05/27 04:39:35;;;;;;;4.40;2.50;;;;;;;20.09;48.67;100747.20;117340;1186;23557;-52
2022/05/27 04:42:03;;;;;;;3.70;2.70;;;;;;;20.26;48.59;100742.29;117330;1186;21877;-52
2022/05/27 04:44:30;;;;;;;4.20;2.70;;;;;;;20.42;48.54;100741.54;117113;1185;22920;-55
2022/05/27 04:46:57;;;;;;;4.90;2.60;;;;;;;20.58;48.54;100741.33;117305;1186;23592;-55
2022/05/27 04:52:10;;;;;;;4.00;2.60;;;;;;;20.91;48.51;100741.33;117287;1184;24227;-55
2022/05/27 04:54:37;;;;;;;16.70;4.90;;;;;;;21.06;48.48;100742.54;117362;1186;22780;-53
2022/05/27 04:57:04;;;;;;;6.50;3.60;;;;;;;21.24;48.37;100740.42;117080;1187;21850;-53
2022/05/27 04:59:36;;;;;;;7.20;3.60;;;;;;;21.41;48.42;100742.03;117255;1188;24691;-53
2022/05/27 05:02:03;;;;;;;4.30;3.10;;;;;;;21.56;48.38;100741.24;117374;1185;23699;-55
2022/05/27 05:04:30;;;;;;;4.80;2.90;;;;;;;21.71;48.31;100740.17;117303;1185;24150;-52
2022/05/27 05:07:03;;;;;;;4.30;2.20;;;;;;;21.87;48.42;100739.67;117112;1184;21848;-55
2022/05/27 05:09:30;;;;;;;3.10;2.30;;;;;;;22.06;48.31;100740.42;117021;1186;21853;-53
2022/05/27 05:11:58;;;;;;;3.30;1.90;;;;;;;22.31;48.35;100740.14;117104;1183;23545;-53
2022/05/27 05:14:25;;;;;;;3.90;2.30;;;;;;;22.52;48.08;100742.20;117393;1184;23433;-52
2022/05/27 05:16:52;;;;;;;3.20;2.20;;;;;;;22.71;47.89;100744.36;117384;1185;22730;-55
2022/05/27 05:19:19;;;;;;;3.70;1.70;;;;;;;22.88;47.94;100738.58;117075;1188;22161;-56
2022/05/27 05:21:46;;;;;;;4.60;2.10;;;;;;;23.03;47.94;100737.14;117275;1186;24685;-56
2022/05/27 05:24:13;;;;;;;4.50;1.60;;;;;;;23.15;47.89;100737.52;117465;1185;21847;-56
2022/05/27 05:26:41;;;;;;;3.60;1.90;;;;;;;23.28;47.80;100737.12;117118;1184;23440;-53
2022/05/27 05:29:08;;;;;;;7.40;1.90;;;;;;;23.40;47.78;100740.18;117129;1188;21896;-56
2022/05/27 05:31:35;;;;;;;4.60;1.40;;;;;;;23.54;47.79;100739.51;117359;1185;23347;-55
2022/05/27 05:34:02;;;;;;;6.10;2.20;;;;;;;23.70;47.54;100736.76;117375;1185;22068;-55
2022/05/27 05:36:30;;;;;;;4.40;1.90;;;;;;;23.84;47.34;100735.20;117379;1184;24772;-56
2022/05/27 05:38:58;;;;;;;3.10;1.80;;;;;;;23.98;47.46;100739.85;117374;1186;21846;-56
2022/05/27 05:41:36;;;;;;;3.70;2.50;;;;;;;24.12;47.35;100740.05;117017;1186;22962;-55
2022/05/27 05:44:04;;;;;;;2.70;1.90;;;;;;;24.28;47.35;100736.75;117276;1185;23467;-55
2022/05/27 05:46:32;;;;;;;2.30;1.90;;;;;;;24.43;47.23;100737.95;117070;1187;22647;-56
2022/05/27 05:49:00;;;;;;;3.20;2.10;;;;;;;24.59;47.38;100738.15;117088;1189;22931;-53
2022/05/27 05:51:27;;;;;;;2.80;2.20;;;;;;;24.77;47.33;100736.45;117100;1186;21855;-56
2022/05/27 05:53:54;;;;;;;5.50;2.60;;;;;;;24.87;47.13;100739.41;117197;1185;23532;-55
2022/05/27 05:56:22;;;;;;;4.10;2.20;;;;;;;24.98;47.23;100741.89;117373;1185;23557;-54
2022/05/27 05:58:50;;;;;;;4.10;2.40;;;;;;;25.11;47.14;100739.27;117300;1187;22917;-55
2022/05/27 06:01:18;;;;;;;4.40;2.80;;;;;;;25.17;46.92;100738.10;117238;1186;22832;-54
2022/05/27 06:03:45;;;;;;;5.90;2.60;;;;;;;25.23;46.96;100739.49;117345;1185;22928;-53
2022/05/27 06:06:12;;;;;;;4.10;2.70;;;;;;;25.33;46.95;100739.70;117110;1186;21891;-54
2022/05/27 06:08:39;;;;;;;6.10;3.60;;;;;;;25.40;46.87;100741.17;116994;1184;23303;-53
2022/05/27 06:11:07;;;;;;;4.00;2.70;;;;;;;25.46;46.83;100739.71;117031;1184;22919;-53
2022/05/27 06:13:36;;;;;;;4.90;2.80;;;;;;;25.52;46.83;100736.48;117313;1186;21862;-56
2022/05/27 06:16:03;;;;;;;5.10;2.50;;;;;;;25.61;46.86;100730.59;117300;1182;23445;-53
2022/05/27 06:18:31;;;;;;;4.40;2.80;;;;;;;25.76;46.92;100730.86;117060;1186;22526;-55
2022/05/27 06:20:58;;;;;;;3.20;2.30;;;;;;;25.87;46.77;100730.58;117214;1187;24233;-55
2022/05/27 06:23:28;;;;;;;4.30;2.50;;;;;;;26.02;46.79;100728.84;117031;1184;22976;-54
2022/05/27 06:26:03;;;;;;;11.40;3.40;;;;;;;26.13;46.75;100728.39;117062;1187;23550;-56
2022/05/27 06:36:48;;;;;;;5.10;2.40;;;;;;;26.67;46.72;100725.38;117008;1184;22917;-53
2022/05/27 06:39:15;;;;;;;3.50;1.90;;;;;;;26.84;46.62;100721.59;117113;1187;22922;-53
2022/05/27 06:41:42;;;;;;;2.80;2.10;;;;;;;26.95;46.37;100720.42;117144;1186;22923;-55
2022/05/27 06:44:09;;;;;;;8.20;3.00;;;;;;;26.93;46.12;100719.52;117135;1186;21909;-53
2022/05/27 06:46:37;;;;;;;6.70;2.60;;;;;;;26.86;46.01;100715.17;116973;1187;21857;-55
2022/05/27 06:49:06;;;;;;;3.00;2.20;;;;;;;26.88;45.97;100718.26;116982;1187;21856;-55
2022/05/27 06:51:37;;;;;;;4.60;1.80;;;;;;;26.98;46.10;100716.10;117278;1186;21856;-56
2022/05/27 06:54:05;;;;;;;3.40;2.20;;;;;;;27.08;45.93;100718.77;117171;1185;23547;-56
2022/05/27 06:56:36;;;;;;;3.00;1.90;;;;;;;27.15;45.78;100719.81;117070;1186;22321;-56
2022/05/27 06:59:04;;;;;;;3.00;1.90;;;;;;;27.22;45.70;100713.56;117086;1187;23467;-53
2022/05/27 07:01:31;;;;;;;3.70;2.10;;;;;;;27.25;45.58;100715.83;117093;1184;22625;-56
2022/05/27 07:03:58;;;;;;;4.10;2.30;;;;;;;27.25;45.30;100715.27;117304;1186;23429;-53
2022/05/27 07:06:27;;;;;;;2.80;2.00;;;;;;;27.34;45.64;100714.73;117033;1185;24142;-53
2022/05/27 07:08:54;;;;;;;3.00;2.20;;;;;;;27.51;45.60;100712.73;117070;1188;21854;-53
2022/05/27 07:11:21;;;;;;;3.00;1.80;;;;;;;27.64;45.53;100708.48;117043;1185;23593;-54
2022/05/27 07:13:48;;;;;;;2.30;2.00;;;;;;;27.76;45.39;100711.35;117300;1183;23543;-53
2022/05/27 07:16:15;;;;;;;3.60;1.90;;;;;;;27.86;45.26;100713.96;117043;1187;21899;-53
2022/05/27 07:18:42;;;;;;;3.60;1.70;;;;;;;27.92;45.17;100712.97;117094;1187;23445;-54
2022/05/27 07:21:09;;;;;;;3.50;1.80;;;;;;;27.97;44.95;100715.44;117183;1187;22102;-54
2022/05/27 07:23:36;;;;;;;2.50;2.00;;;;;;;28.00;44.92;100714.70;117062;1185;21852;-54
2022/05/27 07:26:04;;;;;;;3.40;1.90;;;;;;;28.03;44.98;100713.30;116977;1183;21855;-54
2022/05/27 07:28:31;;;;;;;2.40;2.00;;;;;;;28.09;44.83;100713.95;117008;1187;22039;-54
2022/05/27 07:31:01;;;;;;;3.50;1.90;;;;;;;28.13;44.67;100713.77;117290;1186;21962;-54
2022/05/27 07:33:35;;;;;;;2.10;1.60;;;;;;;28.14;44.59;100714.63;117035;1186;24155;-54
2022/05/27 07:36:03;;;;;;;2.30;1.60;;;;;;;28.14;44.58;100712.29;116955;1187;23606;-54
2022/05/27 07:38:31;;;;;;;2.30;1.80;;;;;;;28.18;44.52;100709.41;117000;1187;23645;-54
2022/05/27 07:40:59;;;;;;;2.60;1.60;;;;;;;28.32;44.68;100711.23;117169;1188;23473;-54
2022/05/27 07:43:27;;;;;;;2.20;1.60;;;;;;;28.42;44.33;100705.36;117388;1185;21895;-54
2022/05/27 07:45:56;;;;;;;1.80;1.40;;;;;;;28.42;44.24;100703.02;117343;1184;22967;-53
2022/05/27 07:48:23;;;;;;;4.20;1.50;;;;;;;28.44;44.24;100700.30;117377;1185;22806;-55
2022/05/27 07:50:51;;;;;;;2.50;1.80;;;;;;;28.60;44.40;100699.69;117283;1186;21850;-54
2022/05/27 07:53:19;;;;;;;2.40;1.80;;;;;;;28.77;44.17;100693.58;117311;1188;21852;-54
2022/05/27 07:55:46;;;;;;;3.20;1.60;;;;;;;28.94;44.21;100687.52;117408;1185;23538;-54
2022/05/27 07:58:13;;;;;;;5.70;1.60;;;;;;;29.11;44.07;100686.98;117268;1185;22916;-56
2022/05/27 08:00:40;;;;;;;2.60;1.50;;;;;;;29.32;43.92;100682.79;117168;1187;22689;-54
2022/05/27 08:03:10;;;;;;;3.00;1.60;;;;;;;29.50;43.36;100681.13;117357;1186;21856;-56
2022/05/27 08:05:39;;;;;;;4.40;1.80;;;;;;;29.60;43.29;100676.02;117272;1186;23557;-56
2022/05/27 08:08:07;;;;;;;4.10;1.50;;;;;;;29.74;43.54;100672.85;117054;1184;22911;-54
2022/05/27 08:10:35;;;;;;;2.80;1.40;;;;;;;29.76;43.33;100674.26;117426;1183;23546;-54
2022/05/27 08:13:02;;;;;;;3.70;1.50;;;;;;;29.71;43.09;100667.70;117308;1186;23438;-54
2022/05/27 08:15:29;;;;;;;2.30;1.30;;;;;;;29.77;43.08;100667.29;117367;1186;21925;-54
2022/05/27 08:17:56;;;;;;;3.90;1.50;;;;;;;29.87;43.17;100664.42;117153;1185;22857;-55
2022/05/27 08:20:27;;;;;;;2.20;1.60;;;;;;;29.94;42.97;100661.46;117006;1185;22100;-54
2022/05/27 08:22:56;;;;;;;2.20;1.30;;;;;;;30.04;42.80;100659.11;117413;1186;21861;-55
2022/05/27 08:25:24;;;;;;;2.60;1.50;;;;;;;30.20;42.61;100661.18;117419;1183;21855;-55
2022/05/27 08:27:51;;;;;;;2.20;1.10;;;;;;;30.30;42.47;100663.70;117265;1186;22621;-54
2022/05/27 08:30:20;;;;;;;2.00;1.20;;;;;;;30.22;42.11;100659.52;117238;1185;22957;-56
2022/05/27 08:32:52;;;;;;;2.30;1.20;;;;;;;30.09;41.89;100652.36;117256;1186;21964;-56
2022/05/27 08:38:10;;;;;;;1.70;1.20;;;;;;;29.81;41.66;100657.17;116888;1183;21859;-56
2022/05/27 08:40:56;;;;;;;2.40;1.30;;;;;;;29.62;41.43;100661.03;119260;1186;21788;-54
2022/05/27 08:43:41;;;;;;;2.00;1.10;;;;;;;29.38;41.37;100661.88;116993;1187;21920;-55
2022/05/27 08:46:24;;;;;;;1.30;0.90;;;;;;;29.18;41.39;100659.80;117262;1186;23529;-53
2022/05/27 08:48:54;;;;;;;3.30;1.10;;;;;;;29.11;41.36;100656.98;116997;1183;22310;-55
2022/05/27 08:51:56;;;;;;;3.60;1.00;;;;;;;29.24;41.50;100650.44;117060;1187;22921;-55
2022/05/27 08:54:24;;;;;;;3.50;1.20;;;;;;;29.48;41.57;100649.23;117068;1184;22646;-53
2022/05/27 08:59:40;;;;;;;2.20;1.30;;;;;;;30.24;41.94;100644.88;117272;1186;21853;-54
2022/05/27 09:02:19;;;;;;;3.00;0.90;;;;;;;30.71;41.99;100634.74;117279;1187;21854;-55
2022/05/27 09:04:50;;;;;;;2.70;1.20;;;;;;;31.20;41.66;100627.30;117199;1187;22596;-55
2022/05/27 09:07:30;;;;;;;6.70;1.60;;;;;;;31.55;41.26;100630.60;117317;1184;23542;-54
2022/05/27 09:09:59;;;;;;;1.30;0.90;;;;;;;31.58;40.83;100630.50;117342;1182;23440;-54
2022/05/27 09:12:26;;;;;;;3.90;1.30;;;;;;;31.34;40.47;100630.13;117141;1188;22145;-56
2022/05/27 09:15:13;;;;;;;3.00;1.30;;;;;;;31.09;40.44;100627.60;117328;1188;23557;-55
2022/05/27 09:17:53;;;;;;;2.20;1.20;;;;;;;30.87;40.46;100628.25;117142;1186;21853;-55
2022/05/27 09:20:24;;;;;;;1.50;1.10;;;;;;;30.65;40.27;100625.44;117335;1189;21869;-54
2022/05/27 09:23:01;;;;;;;2.20;1.00;;;;;;;30.35;39.86;100628.11;117259;1185;22309;-54
2022/05/27 09:25:47;;;;;;;1.80;1.20;;;;;;;30.08;39.99;100628.25;117141;1187;22919;-56
2022/05/27 09:28:33;;;;;;;2.40;1.30;;;;;;;29.89;40.01;100620.50;117069;1188;21912;-54
2022/05/27 09:31:01;;;;;;;3.40;1.20;;;;;;;29.83;40.03;100614.88;117256;1186;21845;-56
2022/05/27 09:33:31;;;;;;;2.50;1.50;;;;;;;29.86;40.01;100611.06;117172;1185;21850;-56
2022/05/27 09:36:06;;;;;;;2.50;1.20;;;;;;;29.81;39.88;100609.14;117909;1187;21845;-56
2022/05/27 09:38:34;;;;;;;2.00;1.10;;;;;;;29.78;39.68;100602.84;117171;1187;21859;-56
2022/05/27 09:41:03;;;;;;;1.70;1.00;;;;;;;29.93;39.93;100597.36;117311;1183;22990;-55
2022/05/27 09:43:39;;;;;;;3.60;1.10;;;;;;;30.11;39.95;100600.69;117105;1184;22534;-56
2022/05/27 09:46:09;;;;;;;2.30;1.30;;;;;;;30.17;39.77;100599.92;116989;1187;21854;-56
2022/05/27 09:48:36;;;;;;;2.90;1.10;;;;;;;30.15;39.69;100600.69;117254;1186;21855;-57
2022/05/27 09:51:09;;;;;;;5.70;2.30;;;;;;;30.03;39.58;100594.98;117314;1185;22617;-55
2022/05/27 09:53:39;;;;;;;1.20;1.10;;;;;;;29.92;39.35;100590.19;117147;1184;23560;-55
2022/05/27 09:56:08;;;;;;;2.20;1.00;;;;;;;29.92;39.42;100586.75;117198;1185;24193;-55
2022/05/27 09:58:36;;;;;;;2.40;1.00;;;;;;;29.92;39.44;100587.29;117412;1185;22920;-54
2022/05/27 10:01:17;;;;;;;1.70;1.30;;;;;;;29.79;39.28;100585.63;117250;1184;23495;-56
2022/05/27 10:03:46;;;;;;;2.20;1.10;;;;;;;29.63;39.10;100583.77;117224;1181;21849;-56
2022/05/27 10:06:17;;;;;;;1.50;1.10;;;;;;;29.52;39.10;100581.30;117282;1187;21858;-55
2022/05/27 10:08:53;;;;;;;2.90;1.10;;;;;;;29.45;39.03;100576.72;117280;1182;21854;-54
2022/05/27 10:11:24;;;;;;;1.40;1.10;;;;;;;29.39;38.92;100570.73;117037;1185;22928;-56
2022/05/27 10:14:06;;;;;;;1.60;1.00;;;;;;;29.31;38.92;100567.65;117269;1182;21843;-54
2022/05/27 10:16:34;;;;;;;3.80;1.00;;;;;;;29.27;39.16;100561.84;117311;1186;23443;-56
2022/05/27 10:19:13;;;;;;;2.80;1.30;;;;;;;29.46;39.16;100556.38;117379;1186;22932;-56
2022/05/27 10:22:00;;;;;;;3.90;1.20;;;;;;;29.72;39.16;100552.83;117126;1183;21918;-54
2022/05/27 10:24:33;;;;;;;2.90;1.10;;;;;;;29.85;39.21;100551.80;117092;1187;22889;-56
2022/05/27 10:27:14;;;;;;;2.60;1.40;;;;;;;29.76;38.80;100550.27;117229;1183;24166;-55
2022/05/27 10:30:00;;;;;;;4.90;1.20;;;;;;;29.63;38.69;100547.98;117118;1184;21895;-56
2022/05/27 10:32:43;;;;;;;2.40;1.30;;;;;;;29.55;38.70;100543.79;117017;1187;22974;-54
2022/05/27 10:35:25;;;;;;;4.70;1.30;;;;;;;29.49;38.58;100540.32;117331;1186;22952;-56
2022/05/27 10:38:10;;;;;;;2.10;1.20;;;;;;;29.45;38.61;100536.02;117224;1185;23547;-54
2022/05/27 10:41:01;;;;;;;2.90;1.30;;;;;;;29.41;38.45;100532.60;117120;1187;22704;-56
2022/05/27 10:43:47;;;;;;;1.90;1.00;;;;;;;29.43;38.45;100530.40;117381;1182;23579;-56
2022/05/27 10:46:18;;;;;;;1.40;1.10;;;;;;;29.43;38.48;100523.80;117307;1185;21879;-54
2022/05/27 10:49:23;;;;;;;4.00;1.20;;;;;;;29.39;38.41;100521.75;117235;1185;22532;-57
2022/05/27 10:52:15;;;;;;;1.50;1.00;;;;;;;29.42;38.31;100514.93;117246;1185;21906;-54
2022/05/27 10:55:01;;;;;;;2.00;1.20;;;;;;;29.77;38.91;100509.45;117196;1186;21858;-53
2022/05/27 11:03:35;;;;;;;3.10;1.10;;;;;;;31.35;38.61;100505.53;117209;1186;22938;-56
2022/05/27 11:06:20;;;;;;;2.20;1.10;;;;;;;31.45;38.06;100499.13;117194;1186;22920;-55
2022/05/27 11:09:09;;;;;;;2.40;1.30;;;;;;;31.38;37.82;100490.38;117176;1185;21938;-58
2022/05/27 11:11:50;;;;;;;1.40;0.90;;;;;;;31.33;37.92;100486.17;117023;1185;22920;-55
2022/05/27 11:17:26;;;;;;;2.80;1.50;;;;;;;31.28;37.73;100482.80;117285;1182;21842;-56
2022/05/27 11:19:56;;;;;;;2.70;1.10;;;;;;;31.25;37.59;100482.94;117344;1186;21905;-56
2022/05/27 11:22:38;;;;;;;3.00;1.30;;;;;;;31.22;37.38;100482.29;117293;1188;22992;-56
2022/05/27 11:25:30;;;;;;;3.50;1.10;;;;;;;31.11;36.90;100486.59;117266;1185;21860;-56
2022/05/27 11:28:05;;;;;;;25.70;5.60;;;;;;;30.97;36.60;100484.68;117050;1188;23572;-55
2022/05/27 11:30:47;;;;;;;4.30;1.80;;;;;;;31.00;36.81;100480.41;117288;1183;22937;-55
2022/05/27 11:33:18;;;;;;;3.00;1.20;;;;;;;31.25;36.65;100469.02;117224;1186;22908;-56
2022/05/27 11:36:10;;;;;;;2.50;1.20;;;;;;;31.55;36.62;100467.61;117128;1187;23499;-56
2022/05/27 11:39:02;;;;;;;2.40;1.40;;;;;;;31.78;36.09;100464.15;117252;1182;22822;-56
2022/05/27 11:41:50;;;;;;;2.10;1.00;;;;;;;31.79;36.23;100458.98;117135;1186;22915;-56
2022/05/27 11:44:36;;;;;;;1.90;1.10;;;;;;;31.86;36.44;100461.52;117281;1186;24187;-56
2022/05/27 11:47:08;;;;;;;2.00;1.10;;;;;;;31.95;36.48;100455.37;117143;1186;21867;-57
2022/05/27 11:49:44;;;;;;;4.50;1.50;;;;;;;32.15;36.54;100450.90;117282;1182;22887;-56
2022/05/27 11:53:08;;;;;;;2.40;1.20;;;;;;;32.32;36.12;100449.93;117289;1185;23315;-56
2022/05/27 11:55:52;;;;;;;1.90;1.20;;;;;;;32.41;36.25;100448.29;116952;1188;21852;-57
2022/05/27 11:58:25;;;;;;;5.00;1.10;;;;;;;32.55;35.89;100442.27;116977;1184;21860;-56
2022/05/27 12:01:10;;;;;;;4.10;1.30;;;;;;;32.75;35.99;100445.11;116888;1186;22467;-56
2022/05/27 12:03:41;;;;;;;2.40;1.10;;;;;;;32.92;35.93;100444.80;116991;1184;21859;-57
2022/05/27 12:06:11;;;;;;;2.20;1.10;;;;;;;32.97;35.96;100443.77;117146;1188;23646;-57
2022/05/27 12:08:40;;;;;;;1.40;1.10;;;;;;;32.93;35.90;100434.05;116754;1190;22325;-56
2022/05/27 12:11:33;;;;;;;1.80;1.10;;;;;;;33.00;35.79;100431.63;116889;1186;23435;-55
2022/05/27 12:14:13;;;;;;;1.60;1.10;;;;;;;33.23;35.83;100432.61;116967;1187;23551;-56
2022/05/27 12:16:43;;;;;;;1.70;0.80;;;;;;;33.51;35.99;100429.84;116982;1186;22996;-56